createdAt,value
2019-03-09T00:00:43.796Z,18.53
2019-03-09T00:03:18.289Z,20.40
2019-03-09T00:05:51.433Z,21.53
2019-03-09T00:08:24.501Z,27.87
2019-03-09T00:10:57.812Z,20.87
2019-03-09T00:13:30.781Z,21.57
2019-03-09T00:16:03.960Z,22.63
2019-03-09T00:18:36.892Z,22.43
2019-03-09T00:21:10.254Z,24.30
2019-03-09T00:24:06.285Z,20.57
2019-03-09T00:26:47.888Z,19.07
2019-03-09T00:29:32.397Z,23.70
2019-03-09T00:32:11.723Z,23.63
2019-03-09T00:34:47.320Z,21.37
2019-03-09T00:37:27.962Z,22.00
2019-03-09T00:40:04.298Z,24.90
2019-03-09T00:42:39.344Z,22.13
2019-03-09T00:45:15.904Z,24.73
2019-03-09T00:47:48.806Z,25.80
2019-03-09T00:50:21.738Z,24.73
2019-03-09T00:52:58.073Z,28.27
2019-03-09T00:55:31.314Z,28.33
2019-03-09T00:58:05.135Z,40.93
2019-03-09T01:00:43.051Z,30.27
2019-03-09T01:03:17.346Z,30.77
2019-03-09T01:05:50.743Z,25.77
2019-03-09T01:08:23.787Z,26.77
2019-03-09T01:10:58.180Z,24.57
2019-03-09T01:13:32.700Z,21.87
2019-03-09T01:16:08.446Z,24.53
2019-03-09T01:18:44.343Z,25.80
2019-03-09T01:21:19.377Z,28.43
2019-03-09T01:23:59.548Z,32.80
2019-03-09T01:26:35.871Z,23.93
2019-03-09T01:29:11.028Z,24.30
2019-03-09T01:31:45.753Z,20.57
2019-03-09T01:34:18.928Z,30.07
2019-03-09T01:36:54.228Z,21.60
2019-03-09T01:39:31.189Z,23.60
2019-03-09T01:42:04.102Z,21.03
2019-03-09T01:44:38.481Z,20.97
2019-03-09T01:47:20.531Z,22.30
2019-03-09T01:49:53.327Z,22.90
2019-03-09T01:52:26.273Z,24.77
2019-03-09T01:55:08.393Z,21.10
2019-03-09T01:57:44.581Z,19.27
2019-03-09T02:00:18.696Z,26.93
2019-03-09T02:02:51.706Z,22.40
2019-03-09T02:05:28.871Z,27.67
2019-03-09T02:08:01.832Z,25.57
2019-03-09T02:10:36.579Z,22.87
2019-03-09T02:13:12.372Z,23.07
2019-03-09T02:15:45.320Z,20.97
2019-03-09T02:18:25.377Z,21.03
2019-03-09T02:21:05.896Z,33.43
2019-03-09T02:23:38.803Z,85.60
2019-03-09T02:26:11.738Z,77.87
2019-03-09T02:28:44.642Z,63.27
2019-03-09T02:31:17.498Z,30.80
2019-03-09T02:33:50.388Z,21.37
2019-03-09T02:36:23.509Z,28.40
2019-03-09T02:39:00.591Z,29.97
2019-03-09T02:41:35.112Z,22.80
2019-03-09T02:44:08.016Z,29.07
2019-03-09T02:46:40.764Z,28.40
2019-03-09T02:49:13.574Z,24.93
2019-03-09T02:51:46.669Z,23.30
2019-03-09T02:54:19.482Z,21.97
2019-03-09T02:56:52.280Z,35.03
2019-03-09T02:59:25.601Z,26.33
2019-03-09T03:02:13.913Z,24.00
2019-03-09T03:04:46.985Z,17.50
2019-03-09T03:07:19.747Z,26.97
2019-03-09T03:09:54.194Z,24.27
2019-03-09T03:12:27.064Z,27.40
2019-03-09T03:15:00.079Z,25.20
2019-03-09T03:17:33.169Z,26.30
2019-03-09T03:20:07.370Z,20.17
2019-03-09T03:22:40.292Z,18.30
2019-03-09T03:25:13.447Z,18.67
2019-03-09T03:27:46.539Z,19.23
2019-03-09T03:30:19.682Z,17.57
2019-03-09T03:32:54.272Z,19.97
2019-03-09T03:35:27.292Z,20.27
2019-03-09T03:38:00.049Z,19.53
2019-03-09T03:40:33.218Z,21.33
2019-03-09T03:43:06.176Z,18.30
2019-03-09T03:45:44.605Z,19.20
2019-03-09T03:48:17.391Z,22.67
2019-03-09T03:50:50.214Z,22.30
2019-03-09T03:53:23.099Z,18.13
2019-03-09T03:55:56.251Z,16.43
2019-03-09T03:58:29.069Z,21.47
2019-03-09T04:01:01.965Z,20.07
2019-03-09T04:03:34.936Z,17.47
2019-03-09T04:06:08.027Z,25.23
2019-03-09T04:08:41.455Z,21.73
2019-03-09T04:11:14.407Z,23.30
2019-03-09T04:13:47.738Z,24.93
2019-03-09T04:16:20.564Z,18.07
2019-03-09T04:18:53.579Z,19.83
2019-03-09T04:21:26.478Z,23.40
2019-03-09T04:23:59.419Z,17.77
2019-03-09T04:26:32.615Z,14.80
2019-03-09T04:29:06.398Z,14.13
2019-03-09T04:31:39.305Z,14.17
2019-03-09T04:34:12.215Z,19.87
2019-03-09T04:36:45.233Z,15.63
2019-03-09T04:39:18.184Z,15.03
2019-03-09T04:41:55.208Z,15.90
2019-03-09T04:44:28.166Z,12.63
2019-03-09T04:47:01.717Z,15.83
2019-03-09T04:49:34.680Z,14.17
2019-03-09T04:52:07.604Z,17.27
2019-03-09T04:54:40.527Z,15.73
2019-03-09T04:57:13.255Z,18.43
2019-03-09T04:59:46.224Z,14.47
2019-03-09T05:02:19.169Z,16.73
2019-03-09T05:04:54.061Z,14.37
2019-03-09T05:07:42.631Z,16.70
2019-03-09T05:10:30.018Z,13.20
2019-03-09T05:13:10.737Z,15.10
2019-03-09T05:15:43.543Z,17.57
2019-03-09T05:18:16.495Z,13.27
2019-03-09T05:20:49.430Z,16.77
2019-03-09T05:23:22.292Z,20.17
2019-03-09T05:25:55.346Z,22.33
2019-03-09T05:28:28.285Z,18.17
2019-03-09T05:31:01.228Z,18.07
2019-03-09T05:33:34.069Z,13.60
2019-03-09T05:36:06.998Z,21.13
2019-03-09T05:38:40.319Z,20.33
2019-03-09T05:41:16.364Z,20.03
2019-03-09T05:43:49.330Z,20.90
2019-03-09T05:46:22.359Z,15.73
2019-03-09T05:48:55.326Z,15.50
2019-03-09T05:51:29.239Z,21.93
2019-03-09T05:54:02.375Z,27.63
2019-03-09T05:56:35.325Z,28.87
2019-03-09T05:59:09.497Z,24.40
2019-03-09T06:01:42.371Z,24.90
2019-03-09T06:04:15.279Z,21.87
2019-03-09T06:06:48.096Z,18.73
2019-03-09T06:09:23.148Z,16.03
2019-03-09T06:11:56.071Z,15.47
2019-03-09T06:14:29.242Z,19.77
2019-03-09T06:17:02.186Z,20.70
2019-03-09T06:19:35.029Z,20.83
2019-03-09T06:22:07.929Z,17.40
2019-03-09T06:24:40.654Z,19.03
2019-03-09T06:27:13.643Z,16.30
2019-03-09T06:29:46.690Z,16.03
2019-03-09T06:33:13.166Z,18.03
2019-03-09T06:36:12.110Z,29.13
2019-03-09T06:38:58.928Z,16.53
2019-03-09T06:42:19.194Z,24.53
2019-03-09T06:44:52.062Z,20.23
2019-03-09T06:47:24.848Z,25.23
2019-03-09T06:49:57.627Z,13.73
2019-03-09T06:52:30.362Z,18.33
2019-03-09T06:55:04.201Z,18.77
2019-03-09T06:57:36.952Z,24.87
2019-03-09T07:00:34.596Z,20.30
2019-03-09T07:03:08.571Z,23.03
2019-03-09T07:05:41.304Z,20.43
2019-03-09T07:08:14.068Z,18.30
2019-03-09T07:10:46.804Z,16.03
2019-03-09T07:13:19.580Z,19.47
2019-03-09T07:15:52.331Z,21.57
2019-03-09T07:18:30.113Z,20.33
2019-03-09T07:21:03.102Z,18.57
2019-03-09T07:23:36.000Z,19.27
2019-03-09T07:26:08.887Z,18.93
2019-03-09T07:28:41.640Z,16.83
2019-03-09T07:31:14.586Z,17.60
2019-03-09T07:33:47.375Z,22.80
2019-03-09T07:36:20.209Z,18.60
2019-03-09T07:38:53.047Z,19.43
2019-03-09T07:41:25.973Z,15.20
2019-03-09T07:43:58.878Z,21.63
2019-03-09T07:46:31.824Z,17.20
2019-03-09T07:49:04.847Z,14.67
2019-03-09T07:51:37.605Z,17.43
2019-03-09T07:54:10.427Z,18.20
2019-03-09T07:56:45.473Z,17.23
2019-03-09T07:59:18.272Z,17.77
2019-03-09T08:01:51.033Z,15.73
2019-03-09T08:04:24.019Z,14.13
2019-03-09T08:06:56.880Z,17.33
2019-03-09T08:09:29.690Z,16.97
2019-03-09T08:12:02.492Z,14.40
2019-03-09T08:14:36.311Z,12.80
2019-03-09T08:17:09.209Z,13.43
2019-03-09T08:19:41.919Z,16.13
2019-03-09T08:22:14.684Z,15.97
2019-03-09T08:24:47.504Z,14.43
2019-03-09T08:27:20.214Z,16.67
2019-03-09T08:29:53.172Z,18.37
2019-03-09T08:32:26.313Z,19.87
2019-03-09T08:34:59.170Z,17.03
2019-03-09T08:37:32.006Z,17.33
2019-03-09T08:40:04.805Z,23.43
2019-03-09T08:42:37.606Z,17.57
2019-03-09T08:45:11.319Z,13.17
2019-03-09T08:47:51.520Z,13.13
2019-03-09T08:50:21.121Z,17.17
2019-03-09T08:52:53.905Z,14.83
2019-03-09T08:55:28.415Z,14.27
2019-03-09T08:58:01.350Z,14.03
2019-03-09T09:00:35.095Z,11.10
2019-03-09T09:03:08.030Z,12.93
2019-03-09T09:05:40.895Z,10.50
2019-03-09T09:08:13.803Z,13.30
2019-03-09T09:10:46.840Z,11.00
2019-03-09T09:13:19.671Z,16.83
2019-03-09T09:15:52.479Z,14.03
2019-03-09T09:18:25.616Z,13.53
2019-03-09T09:20:58.528Z,15.07
2019-03-09T09:23:32.461Z,12.93
2019-03-09T09:26:05.236Z,17.43
2019-03-09T09:28:38.021Z,11.60
2019-03-09T09:31:10.819Z,12.80
2019-03-09T09:33:43.678Z,12.30
2019-03-09T09:36:16.673Z,14.53
2019-03-09T09:38:49.525Z,12.57
2019-03-09T09:41:22.393Z,12.67
2019-03-09T09:43:55.328Z,13.70
2019-03-09T09:46:39.399Z,11.83
2019-03-09T09:49:12.244Z,10.77
2019-03-09T09:51:45.044Z,9.30
2019-03-09T09:54:17.841Z,8.57
2019-03-09T09:56:50.737Z,13.53
2019-03-09T09:59:23.547Z,7.77
2019-03-09T10:02:05.236Z,9.70
2019-03-09T10:04:38.051Z,8.23
2019-03-09T10:07:10.815Z,7.97
2019-03-09T10:09:43.600Z,10.73
2019-03-09T10:12:16.329Z,9.27
2019-03-09T10:14:49.159Z,9.43
2019-03-09T10:17:21.892Z,7.30
2019-03-09T10:19:57.424Z,9.03
2019-03-09T10:22:30.473Z,8.30
2019-03-09T10:25:06.917Z,7.17
2019-03-09T10:27:39.824Z,9.53
2019-03-09T10:30:16.213Z,7.67
2019-03-09T10:32:49.456Z,8.53
2019-03-09T10:35:23.628Z,13.37
2019-03-09T10:37:56.672Z,10.77
2019-03-09T10:40:29.744Z,8.90
2019-03-09T10:43:02.625Z,15.40
2019-03-09T10:45:35.561Z,10.10
2019-03-09T10:48:08.425Z,85.73
2019-03-09T10:50:41.395Z,33.37
2019-03-09T10:53:14.189Z,17.97
2019-03-09T10:55:47.059Z,39.20
2019-03-09T10:58:19.629Z,14.50
2019-03-09T11:00:54.590Z,10.20
2019-03-09T11:03:27.539Z,14.70
2019-03-09T11:06:00.357Z,9.37
2019-03-09T11:08:36.130Z,13.37
2019-03-09T11:11:09.040Z,10.10
2019-03-09T11:13:51.418Z,9.23
2019-03-09T11:16:16.473Z,67.07
2019-03-09T11:18:49.560Z,18.87
2019-03-09T11:21:23.648Z,12.43
2019-03-09T11:23:56.634Z,10.00
2019-03-09T11:26:32.081Z,9.03
2019-03-09T11:29:05.089Z,10.13
2019-03-09T11:31:37.974Z,7.70
2019-03-09T11:34:10.978Z,8.77
2019-03-09T11:36:43.634Z,9.17
2019-03-09T11:39:16.397Z,7.83
2019-03-09T11:41:49.225Z,7.27
2019-03-09T11:44:22.039Z,7.80
2019-03-09T11:46:54.792Z,8.27
2019-03-09T11:49:27.577Z,8.00
2019-03-09T11:52:00.380Z,8.20
2019-03-09T11:54:33.190Z,7.90
2019-03-09T11:57:05.937Z,9.47
2019-03-09T11:59:38.854Z,5.03
2019-03-09T12:02:11.725Z,11.73
2019-03-09T12:04:47.050Z,7.37
2019-03-09T12:07:19.003Z,5.50
2019-03-09T12:09:51.749Z,3.40
2019-03-09T12:12:24.495Z,4.90
2019-03-09T12:14:57.365Z,4.77
2019-03-09T12:17:30.414Z,3.23
2019-03-09T12:20:03.314Z,4.83
2019-03-09T12:22:36.182Z,3.77
2019-03-09T12:25:10.118Z,3.73
2019-03-09T12:27:43.790Z,3.23
2019-03-09T12:30:18.101Z,3.37
2019-03-09T12:32:51.062Z,5.23
2019-03-09T12:35:23.988Z,2.30
2019-03-09T12:37:56.971Z,5.30
2019-03-09T12:40:29.855Z,5.17
2019-03-09T12:43:05.641Z,4.37
2019-03-09T12:45:42.749Z,4.60
2019-03-09T12:48:15.590Z,20.57
2019-03-09T12:50:48.696Z,18.83
2019-03-09T12:53:29.467Z,11.43
2019-03-09T12:56:06.984Z,9.80
2019-03-09T12:58:39.686Z,10.77
2019-03-09T13:01:12.720Z,10.63
2019-03-09T13:03:45.562Z,8.97
2019-03-09T13:06:21.532Z,7.67
2019-03-09T13:08:54.329Z,9.87
2019-03-09T13:11:27.419Z,6.03
2019-03-09T13:14:00.321Z,10.90
2019-03-09T13:16:33.299Z,3.20
2019-03-09T13:19:07.443Z,5.50
2019-03-09T13:21:40.432Z,8.47
2019-03-09T13:24:13.463Z,7.33
2019-03-09T13:26:46.305Z,6.50
2019-03-09T13:29:19.607Z,14.97
2019-03-09T13:31:52.710Z,5.07
2019-03-09T13:34:25.717Z,3.90
2019-03-09T13:36:58.732Z,7.60
2019-03-09T13:39:31.608Z,5.03
2019-03-09T13:42:04.628Z,3.87
2019-03-09T13:44:37.849Z,7.33
2019-03-09T13:47:10.781Z,7.03
2019-03-09T13:49:43.811Z,4.30
2019-03-09T13:52:17.643Z,8.07
2019-03-09T13:54:50.736Z,6.67
2019-03-09T13:57:25.573Z,6.47
2019-03-09T13:59:59.198Z,21.90
2019-03-09T14:02:32.258Z,12.57
2019-03-09T14:05:05.407Z,5.33
2019-03-09T14:07:38.846Z,6.53
2019-03-09T14:10:12.904Z,3.13
2019-03-09T14:12:45.997Z,5.27
2019-03-09T14:15:23.214Z,6.60
2019-03-09T14:17:58.668Z,4.40
2019-03-09T14:20:35.629Z,3.10
2019-03-09T14:23:09.134Z,6.33
2019-03-09T14:25:41.986Z,3.87
2019-03-09T14:28:19.912Z,3.07
2019-03-09T14:31:01.141Z,4.50
2019-03-09T14:33:35.545Z,9.97
2019-03-09T14:36:08.481Z,5.63
2019-03-09T14:38:44.331Z,4.77
2019-03-09T14:41:17.208Z,6.90
2019-03-09T14:43:54.318Z,3.77
2019-03-09T14:46:28.774Z,6.23
2019-03-09T14:49:01.881Z,4.80
2019-03-09T14:51:35.040Z,4.30
2019-03-09T14:54:08.076Z,6.50
2019-03-09T14:56:42.215Z,4.97
2019-03-09T14:59:15.183Z,3.73
2019-03-09T15:02:03.658Z,4.23
2019-03-09T15:04:37.644Z,6.77
2019-03-09T15:07:14.571Z,5.43
2019-03-09T15:09:47.850Z,7.80
2019-03-09T15:12:20.852Z,6.50
2019-03-09T15:14:58.800Z,8.17
2019-03-09T15:17:32.204Z,6.83
2019-03-09T15:20:06.906Z,6.23
2019-03-09T15:22:39.742Z,9.77
2019-03-09T15:25:15.239Z,7.53
2019-03-09T15:27:53.249Z,4.83
2019-03-09T15:30:31.060Z,5.97
2019-03-09T15:33:06.936Z,8.97
2019-03-09T15:35:43.404Z,7.23
2019-03-09T15:38:22.322Z,8.33
2019-03-09T15:41:06.069Z,5.83
2019-03-09T15:43:38.906Z,7.73
2019-03-09T15:46:17.210Z,9.53
2019-03-09T15:48:54.544Z,9.10
2019-03-09T15:51:27.604Z,11.60
2019-03-09T15:54:00.517Z,10.47
2019-03-09T15:56:33.403Z,8.53
2019-03-09T15:59:06.449Z,6.77
2019-03-09T16:01:39.375Z,11.47
2019-03-09T16:04:12.345Z,8.10
2019-03-09T16:06:45.172Z,8.43
2019-03-09T16:09:18.154Z,10.07
2019-03-09T16:11:50.983Z,10.17
2019-03-09T16:14:24.022Z,6.67
2019-03-09T16:16:56.887Z,16.93
2019-03-09T16:19:30.845Z,13.33
2019-03-09T16:22:04.030Z,11.73
2019-03-09T16:24:37.056Z,9.13
2019-03-09T16:27:29.555Z,13.07
2019-03-09T16:30:07.111Z,10.70
2019-03-09T16:32:41.507Z,17.03
2019-03-09T16:35:14.745Z,11.37
2019-03-09T16:37:55.104Z,12.50
2019-03-09T16:41:12.301Z,11.90
2019-03-09T16:43:58.817Z,10.40
2019-03-09T16:46:39.776Z,12.77
2019-03-09T16:49:14.305Z,8.30
2019-03-09T16:51:47.618Z,14.47
2019-03-09T16:54:20.541Z,13.50
2019-03-09T16:56:53.364Z,12.73
2019-03-09T16:59:26.723Z,11.83
2019-03-09T17:01:59.587Z,16.90
2019-03-09T17:04:32.512Z,13.27
2019-03-09T17:07:09.753Z,13.23
2019-03-09T17:09:44.554Z,11.97
2019-03-09T17:12:21.324Z,68.70
2019-03-09T17:14:54.445Z,27.10
2019-03-09T17:17:27.495Z,11.90
2019-03-09T17:20:01.495Z,14.33
2019-03-09T17:22:37.299Z,14.27
2019-03-09T17:25:15.318Z,10.50
2019-03-09T17:27:51.841Z,8.87
2019-03-09T17:30:38.756Z,10.57
2019-03-09T17:33:15.457Z,16.97
2019-03-09T17:35:49.711Z,14.13
2019-03-09T17:38:28.812Z,19.13
2019-03-09T17:41:03.138Z,18.63
2019-03-09T17:43:37.963Z,16.13
2019-03-09T17:46:13.203Z,12.40
2019-03-09T17:48:48.511Z,12.60
2019-03-09T17:51:21.819Z,10.47
2019-03-09T17:53:55.143Z,13.87
2019-03-09T17:56:31.277Z,11.47
2019-03-09T17:59:07.044Z,11.43
2019-03-09T18:01:45.510Z,10.43
2019-03-09T18:04:18.816Z,9.80
2019-03-09T18:06:54.301Z,8.17
2019-03-09T18:09:28.796Z,9.73
2019-03-09T18:12:03.080Z,9.23
2019-03-09T18:14:36.897Z,10.30
2019-03-09T18:17:09.775Z,8.37
2019-03-09T18:19:43.894Z,9.37
2019-03-09T18:22:16.928Z,6.57
2019-03-09T18:24:53.719Z,7.13
2019-03-09T18:27:26.915Z,9.63
2019-03-09T18:30:00.026Z,11.50
2019-03-09T18:32:34.173Z,3.33
2019-03-09T18:35:07.432Z,6.23
2019-03-09T18:37:41.917Z,6.77
2019-03-09T18:40:14.999Z,6.63
2019-03-09T18:42:47.890Z,5.70
2019-03-09T18:45:20.955Z,7.27
2019-03-09T18:47:53.934Z,9.17
2019-03-09T18:50:27.273Z,8.13
2019-03-09T18:53:00.953Z,7.17
2019-03-09T18:55:34.034Z,9.80
2019-03-09T18:58:08.714Z,6.63
2019-03-09T19:00:41.621Z,5.73
2019-03-09T19:03:14.490Z,6.30
2019-03-09T19:05:50.308Z,6.17
2019-03-09T19:08:23.480Z,8.93
2019-03-09T19:10:56.489Z,10.23
2019-03-09T19:13:30.173Z,5.37
2019-03-09T19:16:03.527Z,10.23
2019-03-09T19:18:36.431Z,9.63
2019-03-09T19:21:09.660Z,11.03
2019-03-09T19:23:51.804Z,8.73
2019-03-09T19:26:24.919Z,7.10
2019-03-09T19:28:57.875Z,5.47
2019-03-09T19:31:34.320Z,7.20
2019-03-09T19:34:07.849Z,14.73
2019-03-09T19:36:48.784Z,9.87
2019-03-09T19:39:23.302Z,13.07
2019-03-09T19:42:44.435Z,10.17
2019-03-09T19:45:17.836Z,17.20
2019-03-09T19:47:50.826Z,10.87
2019-03-09T19:50:23.795Z,9.33
2019-03-09T19:52:59.118Z,16.43
2019-03-09T19:55:32.763Z,32.67
2019-03-09T19:58:06.638Z,34.50
2019-03-09T20:00:39.748Z,17.90
2019-03-09T20:03:14.320Z,15.30
2019-03-09T20:05:50.324Z,8.23
2019-03-09T20:08:52.291Z,7.43
2019-03-09T20:11:36.219Z,5.70
2019-03-09T20:14:09.282Z,5.53
2019-03-09T20:16:52.556Z,4.97
2019-03-09T20:19:25.544Z,6.53
2019-03-09T20:21:58.328Z,5.73
2019-03-09T20:24:31.415Z,11.87
2019-03-09T20:27:04.421Z,10.17
2019-03-09T20:29:37.631Z,9.70
2019-03-09T20:32:10.593Z,6.87
2019-03-09T20:34:43.514Z,8.53
2019-03-09T20:37:16.507Z,8.93
2019-03-09T20:39:49.692Z,10.90
2019-03-09T20:42:23.328Z,14.37
2019-03-09T20:44:56.399Z,9.97
2019-03-09T20:47:29.479Z,6.83
2019-03-09T20:50:02.620Z,7.40
2019-03-09T20:52:42.273Z,5.67
2019-03-09T20:55:16.970Z,9.13
2019-03-09T20:57:50.546Z,8.83
2019-03-09T21:00:32.081Z,10.70
2019-03-09T21:03:22.686Z,10.93
2019-03-09T21:06:13.153Z,12.00
2019-03-09T21:08:58.330Z,11.03
2019-03-09T21:11:40.413Z,14.77
2019-03-09T21:14:13.479Z,17.27
2019-03-09T21:16:47.167Z,15.80
2019-03-09T21:19:20.532Z,11.07
2019-03-09T21:21:54.116Z,9.33
2019-03-09T21:24:33.653Z,8.43
2019-03-09T21:27:07.090Z,6.73
2019-03-09T21:29:40.426Z,6.23
2019-03-09T21:32:15.193Z,9.53
2019-03-09T21:34:53.225Z,9.87
2019-03-09T21:37:38.473Z,10.67
2019-03-09T21:40:24.383Z,6.87
2019-03-09T21:43:33.964Z,7.60
2019-03-09T21:46:07.108Z,7.83
2019-03-09T21:48:40.261Z,3.97
2019-03-09T21:54:17.897Z,6.20
2019-03-09T21:57:01.761Z,7.50
2019-03-09T21:59:40.320Z,5.50
2019-03-09T22:02:28.806Z,6.00
2019-03-09T22:05:20.013Z,5.03
2019-03-09T22:08:03.280Z,5.93
2019-03-09T22:10:37.668Z,4.80
2019-03-09T22:13:12.776Z,11.23
2019-03-09T22:15:46.617Z,5.07
2019-03-09T22:18:25.356Z,5.80
2019-03-09T22:21:00.014Z,5.40
2019-03-09T22:23:43.551Z,4.27
2019-03-09T22:26:08.838Z,4.77
2019-03-09T22:28:42.181Z,5.27
2019-03-09T22:31:18.977Z,4.23
2019-03-09T22:33:53.504Z,5.73
2019-03-09T22:36:27.961Z,7.43
2019-03-09T22:39:05.097Z,5.90
2019-03-09T22:41:49.883Z,4.17
2019-03-09T22:44:27.473Z,5.17
2019-03-09T22:47:11.944Z,4.07
2019-03-09T22:49:43.743Z,4.80
2019-03-09T22:52:22.454Z,2.77
2019-03-09T22:55:07.403Z,3.63
2019-03-09T22:57:42.312Z,4.53
2019-03-09T23:00:22.538Z,3.17
2019-03-09T23:02:57.584Z,3.17
2019-03-09T23:05:31.270Z,4.33
2019-03-09T23:08:05.051Z,3.80
2019-03-09T23:10:39.253Z,4.73
2019-03-09T23:13:13.013Z,7.03
2019-03-09T23:15:47.092Z,3.70
2019-03-09T23:18:20.274Z,3.53
2019-03-09T23:20:53.804Z,3.63
2019-03-09T23:23:28.564Z,2.33
2019-03-09T23:26:10.202Z,5.40
2019-03-09T23:29:10.520Z,2.57
2019-03-09T23:31:44.787Z,3.97
2019-03-09T23:34:18.654Z,4.83
2019-03-09T23:36:59.770Z,5.23
2019-03-09T23:39:37.468Z,20.43
2019-03-09T23:42:14.157Z,10.63
2019-03-09T23:44:56.287Z,5.10
2019-03-09T23:47:33.330Z,8.10
2019-03-09T23:50:12.923Z,7.53
2019-03-09T23:52:55.321Z,11.07
2019-03-09T23:55:29.385Z,8.13
2019-03-09T23:58:06.309Z,12.07
